Portage la Prairie, Canada
Current Conditions -  °F | °C
As of 3:30 AM on Monday 20 Oct 2014 (Local Time) from CYWG Reporting Station
Scattered Clouds Scattered Clouds  
Wind Chill: 28°   Ceiling: Unl
Heat Index: 34°   Visibility: 15mi
Dew Point: 34°   Wind: 7mph
Humidity: 100%   Direction: 340°NNW
Pressure: 30.02"   Gusts: NA
Location:  49.97°N, 98.29°W
Report Text: CYWG 200830Z 34006KT 15SM SCT012 01/01 A3002 RMK SF3 SLP172
Loading
Personal Weather Stations






























Interactive Weather Map
Tropical Storm Tracking
New forecast layout! Learn more

10-Day Weather Forecast

Advertisements
Track Severe Weather on mobile